sensor_id;sensor_type;location;lat;lon;timestamp;P1;durP1;ratioP1;P2;durP2;ratioP2
8482;SDS011;4278;42.668;23.312;2022-07-29T00:01:31;10.73;;;7.55;;
8482;SDS011;4278;42.668;23.312;2022-07-29T00:03:58;11.10;;;7.55;;
8482;SDS011;4278;42.668;23.312;2022-07-29T00:06:25;11.52;;;7.70;;
8482;SDS011;4278;42.668;23.312;2022-07-29T00:08:51;8.98;;;7.00;;
8482;SDS011;4278;42.668;23.312;2022-07-29T00:11:18;9.20;;;7.57;;
8482;SDS011;4278;42.668;23.312;2022-07-29T00:13:44;9.43;;;7.85;;
8482;SDS011;4278;42.668;23.312;2022-07-29T00:16:11;8.98;;;7.75;;
8482;SDS011;4278;42.668;23.312;2022-07-29T00:18:39;12.10;;;7.53;;
8482;SDS011;4278;42.668;23.312;2022-07-29T00:21:05;9.82;;;7.85;;
8482;SDS011;4278;42.668;23.312;2022-07-29T00:23:32;10.13;;;7.43;;
8482;SDS011;4278;42.668;23.312;2022-07-29T00:25:59;9.15;;;7.13;;
8482;SDS011;4278;42.668;23.312;2022-07-29T00:28:25;10.05;;;7.40;;
8482;SDS011;4278;42.668;23.312;2022-07-29T00:30:52;9.68;;;7.40;;
8482;SDS011;4278;42.668;23.312;2022-07-29T00:33:18;7.75;;;6.35;;
8482;SDS011;4278;42.668;23.312;2022-07-29T00:35:47;8.38;;;7.00;;
8482;SDS011;4278;42.668;23.312;2022-07-29T00:38:13;11.63;;;7.68;;
8482;SDS011;4278;42.668;23.312;2022-07-29T00:40:40;10.45;;;7.15;;
8482;SDS011;4278;42.668;23.312;2022-07-29T00:43:06;9.23;;;6.95;;
8482;SDS011;4278;42.668;23.312;2022-07-29T00:45:33;8.57;;;6.80;;
8482;SDS011;4278;42.668;23.312;2022-07-29T00:47:59;8.65;;;7.18;;
8482;SDS011;4278;42.668;23.312;2022-07-29T00:50:26;10.80;;;6.68;;
8482;SDS011;4278;42.668;23.312;2022-07-29T00:52:54;8.32;;;6.72;;
8482;SDS011;4278;42.668;23.312;2022-07-29T00:55:21;9.05;;;6.35;;
8482;SDS011;4278;42.668;23.312;2022-07-29T00:57:48;12.00;;;8.70;;
8482;SDS011;4278;42.668;23.312;2022-07-29T01:00:15;11.70;;;9.65;;
8482;SDS011;4278;42.668;23.312;2022-07-29T01:02:43;13.07;;;9.80;;
8482;SDS011;4278;42.668;23.312;2022-07-29T01:05:10;13.07;;;9.73;;
8482;SDS011;4278;42.668;23.312;2022-07-29T01:07:37;13.82;;;9.50;;
8482;SDS011;4278;42.668;23.312;2022-07-29T01:10:06;12.88;;;10.32;;
8482;SDS011;4278;42.668;23.312;2022-07-29T01:12:33;14.95;;;11.68;;
8482;SDS011;4278;42.668;23.312;2022-07-29T01:15:01;17.83;;;11.40;;
8482;SDS011;4278;42.668;23.312;2022-07-29T01:17:29;14.27;;;11.10;;
8482;SDS011;4278;42.668;23.312;2022-07-29T01:20:01;15.43;;;11.15;;
8482;SDS011;4278;42.668;23.312;2022-07-29T01:22:31;16.92;;;11.05;;
8482;SDS011;4278;42.668;23.312;2022-07-29T01:25:04;16.17;;;11.10;;
8482;SDS011;4278;42.668;23.312;2022-07-29T01:27:38;14.85;;;10.70;;
8482;SDS011;4278;42.668;23.312;2022-07-29T01:30:07;14.82;;;11.18;;
8482;SDS011;4278;42.668;23.312;2022-07-29T01:32:35;15.30;;;10.90;;
8482;SDS011;4278;42.668;23.312;2022-07-29T01:35:03;13.45;;;10.68;;
8482;SDS011;4278;42.668;23.312;2022-07-29T01:37:32;15.27;;;10.60;;
8482;SDS011;4278;42.668;23.312;2022-07-29T01:40:02;12.38;;;9.52;;
8482;SDS011;4278;42.668;23.312;2022-07-29T01:42:32;12.88;;;9.65;;
8482;SDS011;4278;42.668;23.312;2022-07-29T01:45:01;14.55;;;9.38;;
8482;SDS011;4278;42.668;23.312;2022-07-29T01:47:31;13.98;;;9.75;;
8482;SDS011;4278;42.668;23.312;2022-07-29T01:49:59;13.20;;;10.10;;
8482;SDS011;4278;42.668;23.312;2022-07-29T01:52:27;17.25;;;10.68;;
8482;SDS011;4278;42.668;23.312;2022-07-29T01:54:58;12.25;;;9.40;;
8482;SDS011;4278;42.668;23.312;2022-07-29T01:57:26;13.38;;;9.75;;
8482;SDS011;4278;42.668;23.312;2022-07-29T01:59:54;14.65;;;10.73;;
8482;SDS011;4278;42.668;23.312;2022-07-29T02:02:22;16.52;;;9.85;;
8482;SDS011;4278;42.668;23.312;2022-07-29T02:04:50;18.63;;;10.75;;
8482;SDS011;4278;42.668;23.312;2022-07-29T02:07:20;14.43;;;10.57;;
8482;SDS011;4278;42.668;23.312;2022-07-29T02:09:47;16.55;;;10.63;;
8482;SDS011;4278;42.668;23.312;2022-07-29T02:12:14;14.15;;;10.95;;
8482;SDS011;4278;42.668;23.312;2022-07-29T02:14:43;12.95;;;10.38;;
8482;SDS011;4278;42.668;23.312;2022-07-29T02:17:10;14.25;;;10.23;;
8482;SDS011;4278;42.668;23.312;2022-07-29T02:19:38;13.23;;;10.18;;
8482;SDS011;4278;42.668;23.312;2022-07-29T02:22:07;13.93;;;10.52;;
8482;SDS011;4278;42.668;23.312;2022-07-29T02:24:34;15.23;;;10.45;;
8482;SDS011;4278;42.668;23.312;2022-07-29T02:27:02;14.18;;;9.98;;
8482;SDS011;4278;42.668;23.312;2022-07-29T02:29:30;15.52;;;10.48;;
8482;SDS011;4278;42.668;23.312;2022-07-29T02:31:57;14.48;;;10.85;;
8482;SDS011;4278;42.668;23.312;2022-07-29T02:34:25;16.08;;;10.70;;
8482;SDS011;4278;42.668;23.312;2022-07-29T02:36:52;13.77;;;10.48;;
8482;SDS011;4278;42.668;23.312;2022-07-29T02:39:22;15.07;;;11.05;;
8482;SDS011;4278;42.668;23.312;2022-07-29T02:41:50;13.68;;;10.57;;
8482;SDS011;4278;42.668;23.312;2022-07-29T02:44:17;14.40;;;10.32;;
8482;SDS011;4278;42.668;23.312;2022-07-29T02:46:46;16.90;;;11.45;;
8482;SDS011;4278;42.668;23.312;2022-07-29T02:49:15;13.98;;;10.95;;
8482;SDS011;4278;42.668;23.312;2022-07-29T02:51:45;19.13;;;11.57;;
8482;SDS011;4278;42.668;23.312;2022-07-29T02:54:15;16.33;;;11.13;;
8482;SDS011;4278;42.668;23.312;2022-07-29T02:56:46;12.75;;;10.75;;
8482;SDS011;4278;42.668;23.312;2022-07-29T02:59:14;12.27;;;9.68;;
8482;SDS011;4278;42.668;23.312;2022-07-29T03:01:44;14.90;;;10.15;;
8482;SDS011;4278;42.668;23.312;2022-07-29T03:04:11;13.82;;;9.30;;
8482;SDS011;4278;42.668;23.312;2022-07-29T03:06:39;15.38;;;8.63;;
8482;SDS011;4278;42.668;23.312;2022-07-29T03:09:07;12.38;;;8.93;;
8482;SDS011;4278;42.668;23.312;2022-07-29T03:11:34;12.73;;;8.27;;
8482;SDS011;4278;42.668;23.312;2022-07-29T03:14:03;14.13;;;8.40;;
8482;SDS011;4278;42.668;23.312;2022-07-29T03:16:30;9.60;;;8.57;;
8482;SDS011;4278;42.668;23.312;2022-07-29T03:18:58;10.70;;;8.13;;
8482;SDS011;4278;42.668;23.312;2022-07-29T03:21:24;11.75;;;8.55;;
8482;SDS011;4278;42.668;23.312;2022-07-29T03:23:51;11.50;;;8.90;;
8482;SDS011;4278;42.668;23.312;2022-07-29T03:26:17;9.65;;;7.60;;
8482;SDS011;4278;42.668;23.312;2022-07-29T03:28:45;12.60;;;7.82;;
8482;SDS011;4278;42.668;23.312;2022-07-29T03:31:13;10.70;;;7.72;;
8482;SDS011;4278;42.668;23.312;2022-07-29T03:33:39;13.48;;;9.65;;
8482;SDS011;4278;42.668;23.312;2022-07-29T03:36:06;11.38;;;9.05;;
8482;SDS011;4278;42.668;23.312;2022-07-29T03:38:33;14.43;;;9.80;;
8482;SDS011;4278;42.668;23.312;2022-07-29T03:41:01;11.27;;;8.82;;
8482;SDS011;4278;42.668;23.312;2022-07-29T03:43:30;10.77;;;8.07;;
8482;SDS011;4278;42.668;23.312;2022-07-29T03:45:57;12.98;;;8.18;;
8482;SDS011;4278;42.668;23.312;2022-07-29T03:48:26;11.98;;;8.45;;
8482;SDS011;4278;42.668;23.312;2022-07-29T03:50:54;10.60;;;7.63;;
8482;SDS011;4278;42.668;23.312;2022-07-29T03:53:21;10.15;;;8.02;;
8482;SDS011;4278;42.668;23.312;2022-07-29T03:55:50;10.68;;;7.75;;
8482;SDS011;4278;42.668;23.312;2022-07-29T03:58:18;13.43;;;7.90;;
8482;SDS011;4278;42.668;23.312;2022-07-29T04:00:45;10.73;;;9.10;;
8482;SDS011;4278;42.668;23.312;2022-07-29T04:03:12;11.60;;;8.75;;
8482;SDS011;4278;42.668;23.312;2022-07-29T04:05:40;14.48;;;8.32;;
8482;SDS011;4278;42.668;23.312;2022-07-29T04:08:07;11.18;;;7.90;;
8482;SDS011;4278;42.668;23.312;2022-07-29T04:10:34;11.57;;;7.97;;
8482;SDS011;4278;42.668;23.312;2022-07-29T04:13:00;8.57;;;7.38;;
8482;SDS011;4278;42.668;23.312;2022-07-29T04:15:27;11.07;;;8.23;;
8482;SDS011;4278;42.668;23.312;2022-07-29T04:17:53;10.15;;;7.70;;
8482;SDS011;4278;42.668;23.312;2022-07-29T04:20:20;9.43;;;7.45;;
8482;SDS011;4278;42.668;23.312;2022-07-29T04:22:48;13.75;;;8.55;;
8482;SDS011;4278;42.668;23.312;2022-07-29T04:25:15;10.32;;;7.47;;
8482;SDS011;4278;42.668;23.312;2022-07-29T04:27:42;11.75;;;7.63;;
8482;SDS011;4278;42.668;23.312;2022-07-29T04:30:22;10.68;;;7.60;;
8482;SDS011;4278;42.668;23.312;2022-07-29T04:32:49;10.50;;;7.80;;
8482;SDS011;4278;42.668;23.312;2022-07-29T04:35:16;12.95;;;8.10;;
8482;SDS011;4278;42.668;23.312;2022-07-29T04:37:42;9.70;;;7.50;;
8482;SDS011;4278;42.668;23.312;2022-07-29T04:40:11;9.32;;;7.25;;
8482;SDS011;4278;42.668;23.312;2022-07-29T04:42:38;10.77;;;7.93;;
8482;SDS011;4278;42.668;23.312;2022-07-29T04:45:05;11.48;;;8.07;;
8482;SDS011;4278;42.668;23.312;2022-07-29T04:47:32;10.93;;;7.65;;
8482;SDS011;4278;42.668;23.312;2022-07-29T04:49:58;12.13;;;7.22;;
8482;SDS011;4278;42.668;23.312;2022-07-29T04:52:25;11.43;;;7.40;;
8482;SDS011;4278;42.668;23.312;2022-07-29T04:54:52;12.48;;;7.75;;
8482;SDS011;4278;42.668;23.312;2022-07-29T04:57:20;9.27;;;7.00;;
8482;SDS011;4278;42.668;23.312;2022-07-29T04:59:46;10.60;;;6.53;;
8482;SDS011;4278;42.668;23.312;2022-07-29T05:02:13;8.57;;;6.13;;
8482;SDS011;4278;42.668;23.312;2022-07-29T05:04:40;7.82;;;5.47;;
8482;SDS011;4278;42.668;23.312;2022-07-29T05:07:07;10.90;;;6.40;;
8482;SDS011;4278;42.668;23.312;2022-07-29T05:09:33;7.13;;;5.78;;
8482;SDS011;4278;42.668;23.312;2022-07-29T05:12:00;9.85;;;6.55;;
8482;SDS011;4278;42.668;23.312;2022-07-29T05:14:28;9.18;;;6.93;;
8482;SDS011;4278;42.668;23.312;2022-07-29T05:16:54;10.07;;;7.00;;
8482;SDS011;4278;42.668;23.312;2022-07-29T05:19:22;11.50;;;6.97;;
8482;SDS011;4278;42.668;23.312;2022-07-29T05:21:48;9.50;;;7.18;;
8482;SDS011;4278;42.668;23.312;2022-07-29T05:24:15;9.35;;;6.28;;
8482;SDS011;4278;42.668;23.312;2022-07-29T05:26:41;12.02;;;7.07;;
8482;SDS011;4278;42.668;23.312;2022-07-29T05:29:08;10.43;;;7.32;;
8482;SDS011;4278;42.668;23.312;2022-07-29T05:31:37;13.05;;;7.57;;
8482;SDS011;4278;42.668;23.312;2022-07-29T05:34:03;12.45;;;7.10;;
8482;SDS011;4278;42.668;23.312;2022-07-29T05:36:30;14.85;;;7.10;;
8482;SDS011;4278;42.668;23.312;2022-07-29T05:38:56;10.60;;;7.28;;
8482;SDS011;4278;42.668;23.312;2022-07-29T05:41:23;9.40;;;7.00;;
8482;SDS011;4278;42.668;23.312;2022-07-29T05:43:50;7.90;;;6.57;;
8482;SDS011;4278;42.668;23.312;2022-07-29T05:46:17;11.10;;;6.45;;
8482;SDS011;4278;42.668;23.312;2022-07-29T05:48:46;8.20;;;6.90;;
8482;SDS011;4278;42.668;23.312;2022-07-29T05:51:12;11.38;;;7.28;;
8482;SDS011;4278;42.668;23.312;2022-07-29T05:53:39;12.90;;;6.75;;
8482;SDS011;4278;42.668;23.312;2022-07-29T05:56:06;8.32;;;6.07;;
8482;SDS011;4278;42.668;23.312;2022-07-29T05:58:32;8.98;;;6.82;;
8482;SDS011;4278;42.668;23.312;2022-07-29T06:00:59;13.02;;;6.85;;
8482;SDS011;4278;42.668;23.312;2022-07-29T06:03:26;8.95;;;6.57;;
8482;SDS011;4278;42.668;23.312;2022-07-29T06:05:54;8.73;;;6.60;;
8482;SDS011;4278;42.668;23.312;2022-07-29T06:08:20;8.80;;;6.32;;
8482;SDS011;4278;42.668;23.312;2022-07-29T06:10:47;9.57;;;5.65;;
8482;SDS011;4278;42.668;23.312;2022-07-29T06:13:14;8.15;;;6.40;;
8482;SDS011;4278;42.668;23.312;2022-07-29T06:15:41;12.10;;;6.22;;
8482;SDS011;4278;42.668;23.312;2022-07-29T06:18:07;12.35;;;5.97;;
8482;SDS011;4278;42.668;23.312;2022-07-29T06:20:51;7.85;;;5.40;;
8482;SDS011;4278;42.668;23.312;2022-07-29T06:23:20;7.55;;;5.15;;
8482;SDS011;4278;42.668;23.312;2022-07-29T06:25:46;9.48;;;5.10;;
8482;SDS011;4278;42.668;23.312;2022-07-29T06:28:13;8.30;;;4.82;;
8482;SDS011;4278;42.668;23.312;2022-07-29T06:30:40;6.80;;;5.03;;
8482;SDS011;4278;42.668;23.312;2022-07-29T06:33:07;9.65;;;5.55;;
8482;SDS011;4278;42.668;23.312;2022-07-29T06:35:33;8.52;;;6.57;;
8482;SDS011;4278;42.668;23.312;2022-07-29T06:38:02;7.53;;;5.85;;
8482;SDS011;4278;42.668;23.312;2022-07-29T06:40:30;7.38;;;5.80;;
8482;SDS011;4278;42.668;23.312;2022-07-29T06:43:14;7.95;;;6.00;;
8482;SDS011;4278;42.668;23.312;2022-07-29T06:45:40;10.52;;;5.80;;
8482;SDS011;4278;42.668;23.312;2022-07-29T06:48:08;7.88;;;5.80;;
8482;SDS011;4278;42.668;23.312;2022-07-29T06:50:34;6.55;;;5.68;;
8482;SDS011;4278;42.668;23.312;2022-07-29T06:53:01;6.72;;;5.32;;
8482;SDS011;4278;42.668;23.312;2022-07-29T06:55:27;10.50;;;5.07;;
8482;SDS011;4278;42.668;23.312;2022-07-29T06:57:55;5.68;;;5.03;;
8482;SDS011;4278;42.668;23.312;2022-07-29T07:00:22;5.53;;;4.45;;
8482;SDS011;4278;42.668;23.312;2022-07-29T07:02:49;11.80;;;5.72;;
8482;SDS011;4278;42.668;23.312;2022-07-29T07:05:15;7.53;;;5.13;;
8482;SDS011;4278;42.668;23.312;2022-07-29T07:07:42;7.03;;;5.63;;
8482;SDS011;4278;42.668;23.312;2022-07-29T07:10:08;12.10;;;6.18;;
8482;SDS011;4278;42.668;23.312;2022-07-29T07:12:35;9.30;;;5.47;;
8482;SDS011;4278;42.668;23.312;2022-07-29T07:15:03;7.65;;;5.70;;
8482;SDS011;4278;42.668;23.312;2022-07-29T07:17:30;9.07;;;4.88;;
8482;SDS011;4278;42.668;23.312;2022-07-29T07:19:57;6.88;;;4.75;;
8482;SDS011;4278;42.668;23.312;2022-07-29T07:22:24;10.32;;;4.88;;
8482;SDS011;4278;42.668;23.312;2022-07-29T07:24:50;6.32;;;4.78;;
8482;SDS011;4278;42.668;23.312;2022-07-29T07:27:17;8.63;;;4.82;;
8482;SDS011;4278;42.668;23.312;2022-07-29T07:29:43;9.43;;;4.55;;
8482;SDS011;4278;42.668;23.312;2022-07-29T07:32:11;6.88;;;4.82;;
8482;SDS011;4278;42.668;23.312;2022-07-29T07:34:41;6.20;;;4.53;;
8482;SDS011;4278;42.668;23.312;2022-07-29T07:37:07;6.95;;;4.80;;
8482;SDS011;4278;42.668;23.312;2022-07-29T07:39:34;6.63;;;4.90;;
8482;SDS011;4278;42.668;23.312;2022-07-29T07:42:01;8.27;;;4.65;;
8482;SDS011;4278;42.668;23.312;2022-07-29T07:44:27;7.22;;;4.05;;
8482;SDS011;4278;42.668;23.312;2022-07-29T07:46:54;9.20;;;4.40;;
8482;SDS011;4278;42.668;23.312;2022-07-29T07:49:22;5.32;;;3.85;;
8482;SDS011;4278;42.668;23.312;2022-07-29T07:51:48;5.35;;;3.50;;
8482;SDS011;4278;42.668;23.312;2022-07-29T07:54:15;5.07;;;4.18;;
8482;SDS011;4278;42.668;23.312;2022-07-29T07:56:42;5.15;;;4.45;;
8482;SDS011;4278;42.668;23.312;2022-07-29T07:59:09;7.00;;;3.75;;
8482;SDS011;4278;42.668;23.312;2022-07-29T08:01:35;5.13;;;4.10;;
8482;SDS011;4278;42.668;23.312;2022-07-29T08:04:02;4.18;;;3.78;;
8482;SDS011;4278;42.668;23.312;2022-07-29T08:06:30;6.50;;;3.80;;
8482;SDS011;4278;42.668;23.312;2022-07-29T08:08:56;4.45;;;3.40;;
8482;SDS011;4278;42.668;23.312;2022-07-29T08:11:23;5.03;;;3.83;;
8482;SDS011;4278;42.668;23.312;2022-07-29T08:13:49;8.23;;;3.88;;
8482;SDS011;4278;42.668;23.312;2022-07-29T08:16:17;4.03;;;3.63;;
8482;SDS011;4278;42.668;23.312;2022-07-29T08:18:44;4.20;;;3.75;;
8482;SDS011;4278;42.668;23.312;2022-07-29T08:21:11;4.72;;;3.80;;
8482;SDS011;4278;42.668;23.312;2022-07-29T08:23:40;6.80;;;3.42;;
8482;SDS011;4278;42.668;23.312;2022-07-29T08:26:11;4.53;;;3.33;;
8482;SDS011;4278;42.668;23.312;2022-07-29T08:28:38;7.03;;;3.45;;
8482;SDS011;4278;42.668;23.312;2022-07-29T08:31:05;4.35;;;3.58;;
8482;SDS011;4278;42.668;23.312;2022-07-29T08:33:32;5.15;;;3.45;;
8482;SDS011;4278;42.668;23.312;2022-07-29T08:35:58;5.03;;;3.30;;
8482;SDS011;4278;42.668;23.312;2022-07-29T08:38:25;6.07;;;3.80;;
8482;SDS011;4278;42.668;23.312;2022-07-29T08:40:53;4.32;;;3.45;;
8482;SDS011;4278;42.668;23.312;2022-07-29T08:43:20;4.40;;;3.17;;
8482;SDS011;4278;42.668;23.312;2022-07-29T08:45:47;6.28;;;3.40;;
8482;SDS011;4278;42.668;23.312;2022-07-29T08:48:15;3.63;;;2.90;;
8482;SDS011;4278;42.668;23.312;2022-07-29T08:50:42;4.25;;;2.83;;
8482;SDS011;4278;42.668;23.312;2022-07-29T08:53:10;5.70;;;4.28;;
8482;SDS011;4278;42.668;23.312;2022-07-29T08:55:38;6.95;;;3.83;;
8482;SDS011;4278;42.668;23.312;2022-07-29T08:58:07;7.38;;;4.30;;
8482;SDS011;4278;42.668;23.312;2022-07-29T09:00:35;4.65;;;3.17;;
8482;SDS011;4278;42.668;23.312;2022-07-29T09:03:02;4.63;;;3.45;;
8482;SDS011;4278;42.668;23.312;2022-07-29T09:05:31;4.80;;;3.30;;
8482;SDS011;4278;42.668;23.312;2022-07-29T09:07:58;3.60;;;3.05;;
8482;SDS011;4278;42.668;23.312;2022-07-29T09:10:25;3.42;;;3.13;;
8482;SDS011;4278;42.668;23.312;2022-07-29T09:12:53;5.88;;;3.50;;
8482;SDS011;4278;42.668;23.312;2022-07-29T09:15:21;6.30;;;3.75;;
8482;SDS011;4278;42.668;23.312;2022-07-29T09:17:48;6.03;;;3.83;;
8482;SDS011;4278;42.668;23.312;2022-07-29T09:20:16;4.47;;;3.78;;
8482;SDS011;4278;42.668;23.312;2022-07-29T09:22:43;4.78;;;3.45;;
8482;SDS011;4278;42.668;23.312;2022-07-29T09:25:12;3.88;;;3.45;;
8482;SDS011;4278;42.668;23.312;2022-07-29T09:27:38;5.65;;;3.50;;
8482;SDS011;4278;42.668;23.312;2022-07-29T09:30:06;3.75;;;3.33;;
8482;SDS011;4278;42.668;23.312;2022-07-29T09:32:53;6.25;;;3.13;;
8482;SDS011;4278;42.668;23.312;2022-07-29T09:35:21;4.78;;;3.13;;
8482;SDS011;4278;42.668;23.312;2022-07-29T09:37:48;3.28;;;2.85;;
8482;SDS011;4278;42.668;23.312;2022-07-29T09:40:15;4.50;;;3.22;;
8482;SDS011;4278;42.668;23.312;2022-07-29T09:42:42;4.05;;;2.95;;
8482;SDS011;4278;42.668;23.312;2022-07-29T09:45:09;5.32;;;3.22;;
8482;SDS011;4278;42.668;23.312;2022-07-29T09:47:44;4.20;;;3.20;;
8482;SDS011;4278;42.668;23.312;2022-07-29T09:50:14;6.10;;;3.60;;
8482;SDS011;4278;42.668;23.312;2022-07-29T09:52:44;4.47;;;3.70;;
8482;SDS011;4278;42.668;23.312;2022-07-29T09:55:11;4.18;;;3.78;;
8482;SDS011;4278;42.668;23.312;2022-07-29T09:57:38;4.10;;;3.35;;
8482;SDS011;4278;42.668;23.312;2022-07-29T10:00:05;4.82;;;3.90;;
8482;SDS011;4278;42.668;23.312;2022-07-29T10:02:33;4.03;;;3.63;;
8482;SDS011;4278;42.668;23.312;2022-07-29T10:05:02;5.85;;;3.80;;
8482;SDS011;4278;42.668;23.312;2022-07-29T10:07:42;4.30;;;3.88;;
8482;SDS011;4278;42.668;23.312;2022-07-29T10:10:09;3.97;;;3.50;;
8482;SDS011;4278;42.668;23.312;2022-07-29T10:12:40;8.98;;;3.40;;
8482;SDS011;4278;42.668;23.312;2022-07-29T10:15:14;4.30;;;3.90;;
8482;SDS011;4278;42.668;23.312;2022-07-29T10:17:41;3.83;;;3.47;;
8482;SDS011;4278;42.668;23.312;2022-07-29T10:20:10;5.35;;;3.60;;
8482;SDS011;4278;42.668;23.312;2022-07-29T10:22:37;8.35;;;4.28;;
8482;SDS011;4278;42.668;23.312;2022-07-29T10:25:04;5.22;;;3.63;;
8482;SDS011;4278;42.668;23.312;2022-07-29T10:27:31;5.05;;;3.53;;
8482;SDS011;4278;42.668;23.312;2022-07-29T10:29:58;5.57;;;4.53;;
8482;SDS011;4278;42.668;23.312;2022-07-29T10:32:28;6.20;;;4.97;;
8482;SDS011;4278;42.668;23.312;2022-07-29T10:35:15;6.68;;;4.40;;
8482;SDS011;4278;42.668;23.312;2022-07-29T10:37:48;5.75;;;4.13;;
8482;SDS011;4278;42.668;23.312;2022-07-29T10:40:22;5.00;;;4.10;;
8482;SDS011;4278;42.668;23.312;2022-07-29T10:43:14;7.07;;;3.75;;
8482;SDS011;4278;42.668;23.312;2022-07-29T10:45:42;6.30;;;3.55;;
8482;SDS011;4278;42.668;23.312;2022-07-29T10:48:10;4.40;;;4.00;;
8482;SDS011;4278;42.668;23.312;2022-07-29T10:50:53;7.60;;;4.78;;
8482;SDS011;4278;42.668;23.312;2022-07-29T10:53:20;5.75;;;4.50;;
8482;SDS011;4278;42.668;23.312;2022-07-29T10:55:48;7.93;;;4.70;;
8482;SDS011;4278;42.668;23.312;2022-07-29T10:58:16;7.00;;;4.15;;
8482;SDS011;4278;42.668;23.312;2022-07-29T11:00:43;5.00;;;3.40;;
8482;SDS011;4278;42.668;23.312;2022-07-29T11:03:19;4.88;;;4.00;;
8482;SDS011;4278;42.668;23.312;2022-07-29T11:06:07;4.85;;;4.38;;
8482;SDS011;4278;42.668;23.312;2022-07-29T11:08:34;4.50;;;4.10;;
8482;SDS011;4278;42.668;23.312;2022-07-29T11:14:01;5.70;;;4.10;;
8482;SDS011;4278;42.668;23.312;2022-07-29T11:16:57;6.18;;;4.25;;
8482;SDS011;4278;42.668;23.312;2022-07-29T11:19:18;4.70;;;3.80;;
8482;SDS011;4278;42.668;23.312;2022-07-29T11:21:47;4.47;;;3.78;;
8482;SDS011;4278;42.668;23.312;2022-07-29T11:24:15;4.85;;;3.50;;
8482;SDS011;4278;42.668;23.312;2022-07-29T11:26:42;5.10;;;3.40;;
8482;SDS011;4278;42.668;23.312;2022-07-29T11:29:16;7.10;;;3.65;;
8482;SDS011;4278;42.668;23.312;2022-07-29T11:31:46;3.50;;;3.20;;
8482;SDS011;4278;42.668;23.312;2022-07-29T11:34:21;5.22;;;3.10;;
8482;SDS011;4278;42.668;23.312;2022-07-29T11:39:34;5.22;;;4.30;;
8482;SDS011;4278;42.668;23.312;2022-07-29T11:44:53;4.47;;;3.97;;
8482;SDS011;4278;42.668;23.312;2022-07-29T11:47:20;5.15;;;4.47;;
8482;SDS011;4278;42.668;23.312;2022-07-29T11:49:47;7.97;;;4.43;;
8482;SDS011;4278;42.668;23.312;2022-07-29T11:52:15;5.38;;;4.30;;
8482;SDS011;4278;42.668;23.312;2022-07-29T11:54:43;5.07;;;4.47;;
8482;SDS011;4278;42.668;23.312;2022-07-29T11:57:10;8.10;;;4.90;;
8482;SDS011;4278;42.668;23.312;2022-07-29T11:59:38;5.15;;;4.65;;
8482;SDS011;4278;42.668;23.312;2022-07-29T12:02:06;6.25;;;4.75;;
8482;SDS011;4278;42.668;23.312;2022-07-29T12:04:33;5.47;;;3.78;;
8482;SDS011;4278;42.668;23.312;2022-07-29T12:07:00;4.90;;;4.28;;
8482;SDS011;4278;42.668;23.312;2022-07-29T12:09:27;6.63;;;3.88;;
8482;SDS011;4278;42.668;23.312;2022-07-29T12:11:57;4.72;;;4.10;;
8482;SDS011;4278;42.668;23.312;2022-07-29T12:14:24;4.28;;;3.88;;
8482;SDS011;4278;42.668;23.312;2022-07-29T12:16:51;4.82;;;4.32;;
8482;SDS011;4278;42.668;23.312;2022-07-29T12:19:17;6.15;;;4.30;;
8482;SDS011;4278;42.668;23.312;2022-07-29T12:21:44;4.30;;;3.80;;
8482;SDS011;4278;42.668;23.312;2022-07-29T12:24:11;4.80;;;4.40;;
8482;SDS011;4278;42.668;23.312;2022-07-29T12:26:48;4.50;;;4.10;;
8482;SDS011;4278;42.668;23.312;2022-07-29T12:29:17;4.95;;;4.07;;
8482;SDS011;4278;42.668;23.312;2022-07-29T12:31:44;5.03;;;4.32;;
8482;SDS011;4278;42.668;23.312;2022-07-29T12:34:11;5.10;;;4.60;;
8482;SDS011;4278;42.668;23.312;2022-07-29T12:36:38;6.57;;;4.70;;
8482;SDS011;4278;42.668;23.312;2022-07-29T12:39:05;5.88;;;4.40;;
8482;SDS011;4278;42.668;23.312;2022-07-29T12:41:32;5.40;;;4.22;;
8482;SDS011;4278;42.668;23.312;2022-07-29T12:43:58;8.15;;;5.45;;
8482;SDS011;4278;42.668;23.312;2022-07-29T12:46:26;4.75;;;4.22;;
8482;SDS011;4278;42.668;23.312;2022-07-29T12:48:53;6.13;;;4.60;;
8482;SDS011;4278;42.668;23.312;2022-07-29T12:51:28;4.95;;;4.53;;
8482;SDS011;4278;42.668;23.312;2022-07-29T12:54:07;4.97;;;4.43;;
8482;SDS011;4278;42.668;23.312;2022-07-29T12:56:35;5.50;;;3.92;;
8482;SDS011;4278;42.668;23.312;2022-07-29T12:59:10;4.82;;;4.30;;
8482;SDS011;4278;42.668;23.312;2022-07-29T13:01:38;5.00;;;4.47;;
8482;SDS011;4278;42.668;23.312;2022-07-29T13:04:05;5.10;;;4.60;;
8482;SDS011;4278;42.668;23.312;2022-07-29T13:06:33;6.35;;;4.55;;
8482;SDS011;4278;42.668;23.312;2022-07-29T13:09:01;4.55;;;4.15;;
8482;SDS011;4278;42.668;23.312;2022-07-29T13:11:29;5.72;;;4.43;;
8482;SDS011;4278;42.668;23.312;2022-07-29T13:13:56;5.25;;;4.75;;
8482;SDS011;4278;42.668;23.312;2022-07-29T13:16:23;5.80;;;4.93;;
8482;SDS011;4278;42.668;23.312;2022-07-29T13:18:54;7.60;;;4.72;;
8482;SDS011;4278;42.668;23.312;2022-07-29T13:21:29;5.30;;;4.75;;
8482;SDS011;4278;42.668;23.312;2022-07-29T13:23:56;6.97;;;4.68;;
8482;SDS011;4278;42.668;23.312;2022-07-29T13:26:22;4.93;;;4.43;;
8482;SDS011;4278;42.668;23.312;2022-07-29T13:28:49;5.72;;;4.82;;
8482;SDS011;4278;42.668;23.312;2022-07-29T13:31:15;5.63;;;4.68;;
8482;SDS011;4278;42.668;23.312;2022-07-29T13:33:42;5.03;;;4.53;;
8482;SDS011;4278;42.668;23.312;2022-07-29T13:36:10;5.45;;;4.55;;
8482;SDS011;4278;42.668;23.312;2022-07-29T13:38:36;5.50;;;5.00;;
8482;SDS011;4278;42.668;23.312;2022-07-29T13:41:03;6.05;;;4.68;;
8482;SDS011;4278;42.668;23.312;2022-07-29T13:43:29;7.32;;;4.85;;
8482;SDS011;4278;42.668;23.312;2022-07-29T13:45:56;5.38;;;4.88;;
8482;SDS011;4278;42.668;23.312;2022-07-29T13:48:23;6.03;;;4.97;;
8482;SDS011;4278;42.668;23.312;2022-07-29T13:50:50;8.07;;;4.75;;
8482;SDS011;4278;42.668;23.312;2022-07-29T13:53:18;5.10;;;4.60;;
8482;SDS011;4278;42.668;23.312;2022-07-29T13:55:44;6.45;;;4.55;;
8482;SDS011;4278;42.668;23.312;2022-07-29T13:58:11;5.70;;;4.38;;
8482;SDS011;4278;42.668;23.312;2022-07-29T14:00:37;4.72;;;4.25;;
8482;SDS011;4278;42.668;23.312;2022-07-29T14:03:04;8.07;;;4.68;;
8482;SDS011;4278;42.668;23.312;2022-07-29T14:05:31;5.53;;;4.75;;
8482;SDS011;4278;42.668;23.312;2022-07-29T14:07:58;5.25;;;4.32;;
8482;SDS011;4278;42.668;23.312;2022-07-29T14:10:26;7.30;;;4.82;;
8482;SDS011;4278;42.668;23.312;2022-07-29T14:12:52;4.72;;;4.22;;
8482;SDS011;4278;42.668;23.312;2022-07-29T14:15:19;5.55;;;4.65;;
8482;SDS011;4278;42.668;23.312;2022-07-29T14:17:46;5.07;;;4.32;;
8482;SDS011;4278;42.668;23.312;2022-07-29T14:20:12;7.20;;;4.80;;
8482;SDS011;4278;42.668;23.312;2022-07-29T14:22:40;6.10;;;4.70;;
8482;SDS011;4278;42.668;23.312;2022-07-29T14:25:07;5.18;;;4.53;;
8482;SDS011;4278;42.668;23.312;2022-07-29T14:27:36;5.40;;;4.47;;
8482;SDS011;4278;42.668;23.312;2022-07-29T14:30:03;4.85;;;4.35;;
8482;SDS011;4278;42.668;23.312;2022-07-29T14:32:30;5.38;;;4.88;;
8482;SDS011;4278;42.668;23.312;2022-07-29T14:34:56;9.30;;;4.63;;
8482;SDS011;4278;42.668;23.312;2022-07-29T14:37:23;7.80;;;4.90;;
8482;SDS011;4278;42.668;23.312;2022-07-29T14:39:49;4.60;;;4.07;;
8482;SDS011;4278;42.668;23.312;2022-07-29T14:42:16;5.15;;;4.43;;
8482;SDS011;4278;42.668;23.312;2022-07-29T14:44:44;7.05;;;4.65;;
8482;SDS011;4278;42.668;23.312;2022-07-29T14:47:10;6.15;;;4.57;;
8482;SDS011;4278;42.668;23.312;2022-07-29T14:49:37;5.88;;;4.32;;
8482;SDS011;4278;42.668;23.312;2022-07-29T14:52:04;4.47;;;4.07;;
8482;SDS011;4278;42.668;23.312;2022-07-29T14:54:30;5.65;;;4.40;;
8482;SDS011;4278;42.668;23.312;2022-07-29T14:56:57;6.75;;;4.53;;
8482;SDS011;4278;42.668;23.312;2022-07-29T14:59:24;5.30;;;4.65;;
8482;SDS011;4278;42.668;23.312;2022-07-29T15:01:52;6.63;;;4.82;;
8482;SDS011;4278;42.668;23.312;2022-07-29T15:04:19;5.30;;;4.80;;
8482;SDS011;4278;42.668;23.312;2022-07-29T15:06:45;5.40;;;4.65;;
8482;SDS011;4278;42.668;23.312;2022-07-29T15:09:12;6.55;;;5.03;;